Station History

Weather Underground - logo

Station Historical Data
Daily Summary for March 1, 2018 Units:  English    Metric   Both
« Previous Day
Next Day »
Daily Weekly Monthly Yearly Custom
  High: Low: Average:
Temperature: 62.3 °F 43.0 °F 51.6 °F
Dew Point: 51.1 °F 39.4 °F 44.6 °F
Humidity: 92 % 50 % 78 %
Wind Speed: 9.0 mph 0.0 mph 0.9 mph
Wind Gust: 9.0 mph - -
Wind:- - SE
Pressure: 30.18 in 29.95 in -
Precipitation: 0.19 in    
Historical Graphs
 
 
Tabular Data for March 1, 2018
Time Temperature Dew Point Pressure Wind Wind Speed Wind Gust Humidity Rainfall Rate (Hourly)
00:03 43.0 °F 39.4 °F 30.18 in Calm     87 % 0.00 in
00:08 43.2 °F 39.6 °F 30.18 in Calm     87 % 0.00 in
00:13 43.3 °F 39.7 °F 30.18 in Calm     87 % 0.00 in
00:17 43.4 °F 39.8 °F 30.18 in Calm     87 % 0.00 in
00:22 43.5 °F 39.9 °F 30.18 in Calm     87 % 0.00 in
00:27 43.9 °F 40.3 °F 30.18 in Calm     87 % 0.00 in
00:31 44.3 °F 40.4 °F 30.18 in Calm     86 % 0.00 in
00:36 44.7 °F 40.5 °F 30.18 in Calm     85 % 0.00 in
00:40 44.9 °F 40.7 °F 30.18 in Calm     85 % 0.00 in
00:45 44.9 °F 40.4 °F 30.18 in Calm     84 % 0.00 in
00:48 44.9 °F 40.4 °F 30.18 in Calm     84 % 0.00 in
00:53 44.9 °F 40.4 °F 30.17 in Calm     84 % 0.00 in
00:58 44.9 °F 40.4 °F 30.17 in Calm     84 % 0.00 in
01:03 44.9 °F 40.7 °F 30.17 in Calm     85 % 0.00 in
01:09 44.7 °F 40.8 °F 30.17 in Calm     86 % 0.00 in
01:14 44.6 °F 40.7 °F 30.18 in Calm     86 % 0.00 in
01:17 44.4 °F 40.5 °F 30.18 in Calm     86 % 0.00 in
01:22 44.1 °F 40.2 °F 30.17 in Calm     86 % 0.00 in
01:23 44.1 °F 40.2 °F 30.17 in Calm     86 % 0.00 in
01:28 43.9 °F 40.3 °F 30.17 in Calm     87 % 0.00 in
01:33 43.7 °F 40.1 °F 30.17 in Calm     87 % 0.00 in
01:38 43.7 °F 40.1 °F 30.17 in Calm     87 % 0.00 in
01:43 43.8 °F 40.2 °F 30.17 in Calm     87 % 0.00 in
01:48 44.1 °F 40.2 °F 30.17 in Calm     86 % 0.00 in
01:53 44.5 °F 40.0 °F 30.17 in Calm     84 % 0.00 in
01:58 44.8 °F 40.0 °F 30.17 in Calm     83 % 0.00 in
02:03 45.0 °F 39.8 °F 30.17 in Calm     82 % 0.00 in
02:08 45.0 °F 39.8 °F 30.17 in ESE 2.3 mph 2.3 mph 82 % 0.00 in
02:13 45.2 °F 39.7 °F 30.17 in ESE 1.2 mph   81 % 0.00 in
02:18 45.3 °F 39.8 °F 30.17 in Calm     81 % 0.00 in
02:23 45.4 °F 39.9 °F 30.17 in ESE 1.2 mph 1.2 mph 81 % 0.00 in
02:28 45.6 °F 39.8 °F 30.17 in ESE 1.0 mph   80 % 0.00 in
02:33 45.7 °F 39.6 °F 30.17 in Calm     79 % 0.00 in
02:38 45.7 °F 39.9 °F 30.16 in Calm     80 % 0.00 in
02:43 45.6 °F 39.8 °F 30.16 in ESE 1.2 mph 1.2 mph 80 % 0.00 in
02:48 45.5 °F 40.0 °F 30.15 in ESE 1.2 mph 1.2 mph 81 % 0.00 in
02:53 45.3 °F 39.8 °F 30.15 in Calm     81 % 0.00 in
02:58 45.2 °F 39.7 °F 30.15 in ESE 1.2 mph   81 % 0.00 in
03:03 45.1 °F 39.6 °F 30.15 in Calm     81 % 0.00 in
03:09 45.0 °F 39.5 °F 30.15 in ESE 1.2 mph   81 % 0.00 in
03:14 44.8 °F 39.6 °F 30.15 in ESE 1.2 mph 1.2 mph 82 % 0.00 in
03:19 44.6 °F 39.4 °F 30.15 in Calm     82 % 0.00 in
03:24 44.6 °F 39.4 °F 30.15 in Calm     82 % 0.00 in
03:29 44.7 °F 39.5 °F 30.15 in Calm     82 % 0.00 in
03:34 44.7 °F 39.5 °F 30.15 in Calm     82 % 0.00 in
03:39 44.7 °F 39.5 °F 30.15 in Calm     82 % 0.00 in
03:44 44.8 °F 39.6 °F 30.15 in Calm     82 % 0.00 in
03:49 44.7 °F 39.5 °F 30.16 in Calm     82 % 0.00 in
03:54 44.8 °F 39.6 °F 30.16 in Calm     82 % 0.00 in
03:59 44.8 °F 39.6 °F 30.16 in Calm     82 % 0.00 in
04:04 44.9 °F 39.7 °F 30.16 in Calm     82 % 0.00 in
04:09 45.1 °F 39.9 °F 30.16 in ESE 1.2 mph 1.2 mph 82 % 0.00 in
04:14 45.1 °F 39.9 °F 30.16 in ESE 1.0 mph   82 % 0.00 in
04:19 45.2 °F 40.0 °F 30.16 in ESE 1.2 mph 1.2 mph 82 % 0.00 in
04:24 45.4 °F 40.5 °F 30.15 in Calm     83 % 0.00 in
04:29 45.5 °F 40.6 °F 30.15 in ESE 1.2 mph 1.2 mph 83 % 0.00 in
04:34 45.5 °F 40.6 °F 30.15 in Calm     83 % 0.00 in
04:39 45.6 °F 40.7 °F 30.15 in Calm     83 % 0.00 in
04:44 45.7 °F 40.8 °F 30.15 in Calm     83 % 0.00 in
04:49 46.0 °F 40.8 °F 30.15 in ESE 1.2 mph   82 % 0.00 in
04:54 46.3 °F 41.1 °F 30.15 in ESE 1.2 mph   82 % 0.00 in
04:59 46.5 °F 41.3 °F 30.14 in ESE 1.2 mph   82 % 0.00 in
05:04 46.5 °F 41.3 °F 30.15 in ESE 1.2 mph   82 % 0.00 in
05:09 46.4 °F 41.2 °F 30.14 in ESE 1.2 mph   82 % 0.00 in
05:14 46.5 °F 41.6 °F 30.14 in Calm     83 % 0.00 in
05:19 46.5 °F 41.3 °F 30.14 in Calm     82 % 0.00 in
05:25 46.3 °F 41.4 °F 30.14 in Calm     83 % 0.00 in
05:30 46.1 °F 41.2 °F 30.14 in Calm     83 % 0.00 in
05:35 45.9 °F 41.3 °F 30.13 in Calm     84 % 0.00 in
05:40 45.7 °F 41.1 °F 30.13 in Calm     84 % 0.00 in
05:45 45.6 °F 41.0 °F 30.13 in Calm     84 % 0.00 in
05:50 45.5 °F 41.3 °F 30.13 in Calm     85 % 0.00 in
05:55 45.1 °F 40.9 °F 30.13 in Calm     85 % 0.00 in
06:00 44.8 °F 40.6 °F 30.12 in Calm     85 % 0.00 in
06:05 44.7 °F 40.8 °F 30.12 in Calm     86 % 0.00 in
06:10 44.6 °F 41.0 °F 30.12 in Calm     87 % 0.00 in
06:15 44.5 °F 40.9 °F 30.12 in Calm     87 % 0.00 in
06:20 44.4 °F 40.8 °F 30.12 in Calm     87 % 0.00 in
06:25 44.3 °F 40.7 °F 30.12 in Calm     87 % 0.00 in
06:30 44.1 °F 40.5 °F 30.12 in Calm     87 % 0.00 in
06:35 43.9 °F 40.6 °F 30.12 in Calm     88 % 0.00 in
06:40 43.9 °F 40.6 °F 30.12 in Calm     88 % 0.00 in
06:45 43.9 °F 40.6 °F 30.12 in Calm     88 % 0.00 in
06:50 43.9 °F 40.6 °F 30.12 in Calm     88 % 0.00 in
06:55 43.8 °F 40.5 °F 30.12 in Calm     88 % 0.00 in
06:59 43.8 °F 40.5 °F 30.12 in ESE 1.2 mph   88 % 0.00 in
07:04 43.9 °F 40.6 °F 30.12 in Calm     88 % 0.00 in
07:09 44.0 °F 40.7 °F 30.12 in Calm     88 % 0.00 in
07:14 44.3 °F 41.0 °F 30.12 in Calm     88 % 0.00 in
07:19 44.5 °F 41.2 °F 30.12 in Calm     88 % 0.00 in
07:24 44.8 °F 41.2 °F 30.13 in Calm     87 % 0.00 in
07:29 45.2 °F 41.6 °F 30.13 in Calm     87 % 0.00 in
07:34 45.5 °F 41.6 °F 30.13 in Calm     86 % 0.00 in
07:39 45.7 °F 41.8 °F 30.13 in Calm     86 % 0.00 in
07:44 46.0 °F 41.7 °F 30.13 in Calm     85 % 0.00 in
07:49 46.3 °F 41.7 °F 30.13 in Calm     84 % 0.00 in
07:54 46.7 °F 41.8 °F 30.13 in ESE 2.3 mph 2.3 mph 83 % 0.00 in
08:00 47.1 °F 42.2 °F 30.13 in ESE 2.3 mph 2.3 mph 83 % 0.00 in
08:05 47.3 °F 41.4 °F 30.13 in SSE 3.5 mph 3.5 mph 80 % 0.00 in
08:10 47.5 °F 41.6 °F 30.13 in SSE 2.3 mph 2.3 mph 80 % 0.00 in
08:15 47.7 °F 41.8 °F 30.13 in SSE 1.2 mph 1.2 mph 80 % 0.00 in
08:20 47.9 °F 41.4 °F 30.13 in SE 1.2 mph   78 % 0.00 in
08:25 48.0 °F 41.1 °F 30.13 in SE 1.2 mph 1.2 mph 77 % 0.00 in
08:30 48.2 °F 41.3 °F 30.13 in SE 1.2 mph   77 % 0.00 in
08:35 48.4 °F 41.2 °F 30.13 in SE 1.2 mph 1.2 mph 76 % 0.00 in
08:40 48.6 °F 41.0 °F 30.13 in SE 1.2 mph 1.2 mph 75 % 0.00 in
08:45 48.9 °F 41.0 °F 30.13 in SE 1.0 mph   74 % 0.00 in
08:50 49.2 °F 41.3 °F 30.13 in Calm     74 % 0.00 in
08:55 49.4 °F 41.1 °F 30.13 in Calm     73 % 0.00 in
09:00 49.6 °F 41.7 °F 30.13 in Calm     74 % 0.00 in
09:05 49.8 °F 41.5 °F 30.13 in Calm     73 % 0.00 in
09:10 50.1 °F 42.1 °F 30.14 in Calm     74 % 0.00 in
09:15 50.3 °F 42.3 °F 30.14 in Calm     74 % 0.00 in
09:20 50.4 °F 42.1 °F 30.14 in Calm     73 % 0.00 in
09:25 50.5 °F 41.8 °F 30.14 in Calm     72 % 0.00 in
09:30 50.6 °F 43.0 °F 30.14 in Calm     75 % 0.00 in
09:35 50.5 °F 43.6 °F 30.14 in Calm     77 % 0.00 in
09:40 50.5 °F 44.6 °F 30.13 in Calm     80 % 0.00 in
09:45 50.4 °F 44.5 °F 30.13 in ESE 1.2 mph 1.2 mph 80 % 0.00 in
09:50 50.5 °F 44.6 °F 30.13 in Calm     80 % 0.00 in
09:55 50.7 °F 44.1 °F 30.13 in Calm     78 % 0.00 in
10:00 51.0 °F 44.7 °F 30.13 in Calm     79 % 0.00 in
10:05 51.3 °F 45.0 °F 30.12 in NE 1.2 mph   79 % 0.00 in
10:10 51.8 °F 44.8 °F 30.13 in NNE 1.2 mph   77 % 0.00 in
10:15 52.2 °F 44.5 °F 30.13 in East 1.0 mph   75 % 0.00 in
10:20 52.6 °F 44.2 °F 30.11 in East 1.2 mph 1.2 mph 73 % 0.00 in
10:25 53.4 °F 44.6 °F 30.11 in SE 1.2 mph   72 % 0.00 in
10:30 54.0 °F 44.1 °F 30.12 in Calm     69 % 0.00 in
10:35 54.4 °F 43.3 °F 30.13 in SE 1.2 mph   66 % 0.00 in
10:40 54.7 °F 44.0 °F 30.13 in Calm     67 % 0.00 in
10:45 55.0 °F 44.2 °F 30.13 in Calm     67 % 0.00 in
10:50 55.1 °F 44.3 °F 30.13 in NW 1.0 mph   67 % 0.00 in
10:55 55.0 °F 44.6 °F 30.13 in Calm     68 % 0.00 in
11:00 54.9 °F 44.5 °F 30.13 in NW 1.2 mph 1.2 mph 68 % 0.00 in
11:02 55.0 °F 45.0 °F 30.12 in WNW 1.2 mph 1.2 mph 69 % 0.00 in
11:07 55.3 °F 44.5 °F 30.12 in Calm     67 % 0.00 in
11:12 55.5 °F 44.3 °F 30.12 in Calm     66 % 0.00 in
11:17 55.7 °F 44.9 °F 30.12 in Calm     67 % 0.00 in
11:22 56.0 °F 44.8 °F 30.12 in NW 2.0 mph 2.0 mph 66 % 0.00 in
11:27 56.2 °F 44.6 °F 30.11 in WNW 1.2 mph   65 % 0.00 in
11:32 56.8 °F 44.3 °F 30.11 in East 1.2 mph 1.2 mph 63 % 0.00 in
11:37 57.1 °F 42.9 °F 30.11 in SW 1.2 mph   59 % 0.00 in
11:42 57.4 °F 43.6 °F 30.11 in SE 2.3 mph 2.3 mph 60 % 0.00 in
11:47 57.5 °F 43.7 °F 30.11 in ESE 1.2 mph 1.2 mph 60 % 0.00 in
11:52 57.6 °F 42.5 °F 30.10 in ESE 2.3 mph 2.3 mph 57 % 0.00 in
11:57 57.9 °F 42.8 °F 30.10 in SE 2.3 mph 2.3 mph 57 % 0.00 in
12:02 58.2 °F 42.1 °F 30.10 in SE 3.5 mph 3.5 mph 55 % 0.00 in
12:07 58.3 °F 41.2 °F 30.10 in ESE 2.3 mph 2.3 mph 53 % 0.00 in
12:12 58.4 °F 41.8 °F 30.09 in SE 3.0 mph 3.0 mph 54 % 0.00 in
12:17 58.4 °F 41.8 °F 30.10 in SE 6.0 mph 6.0 mph 54 % 0.00 in
12:22 58.4 °F 41.8 °F 30.10 in SE 2.3 mph 2.3 mph 54 % 0.00 in
12:27 58.4 °F 42.3 °F 30.09 in East 2.3 mph 2.3 mph 55 % 0.00 in
12:32 58.5 °F 42.4 °F 30.09 in ESE 1.2 mph 1.2 mph 55 % 0.00 in
12:37 58.6 °F 42.9 °F 30.09 in ESE 1.2 mph 1.2 mph 56 % 0.00 in
12:42 58.8 °F 43.1 °F 30.08 in East 1.2 mph 1.2 mph 56 % 0.00 in
12:47 58.9 °F 42.8 °F 30.08 in ESE 1.2 mph 1.2 mph 55 % 0.00 in
12:52 59.0 °F 44.2 °F 30.08 in ESE 1.2 mph 1.2 mph 58 % 0.00 in
12:57 59.0 °F 45.6 °F 30.07 in SE 1.2 mph 1.2 mph 61 % 0.00 in
13:02 59.0 °F 46.0 °F 30.07 in SE 1.2 mph 1.2 mph 62 % 0.00 in
13:07 59.0 °F 45.6 °F 30.07 in SE 3.0 mph 3.0 mph 61 % 0.00 in
13:13 59.2 °F 45.3 °F 30.07 in SE 3.5 mph 3.5 mph 60 % 0.00 in
13:18 59.6 °F 44.8 °F 30.07 in ESE 3.5 mph 3.5 mph 58 % 0.00 in
13:23 60.0 °F 44.7 °F 30.06 in ENE 1.2 mph 1.2 mph 57 % 0.00 in
13:28 60.6 °F 45.3 °F 30.06 in East 2.3 mph 2.3 mph 57 % 0.00 in
13:33 61.3 °F 45.0 °F 30.06 in ENE 3.5 mph 3.5 mph 55 % 0.00 in
13:38 61.4 °F 44.1 °F 30.06 in East 4.6 mph 4.6 mph 53 % 0.00 in
13:43 61.4 °F 43.6 °F 30.06 in SE 3.5 mph 3.5 mph 52 % 0.00 in
13:48 61.9 °F 44.1 °F 30.06 in SSE 4.6 mph 4.6 mph 52 % 0.00 in
13:53 62.3 °F 43.9 °F 30.05 in SE 9.0 mph 9.0 mph 51 % 0.00 in
13:58 62.3 °F 43.4 °F 30.05 in East 5.8 mph 5.8 mph 50 % 0.00 in
14:03 62.2 °F 43.3 °F 30.05 in ESE 5.8 mph 5.8 mph 50 % 0.00 in
14:08 62.2 °F 43.8 °F 30.05 in SSE 7.0 mph 7.0 mph 51 % 0.00 in
14:13 61.8 °F 44.0 °F 30.05 in SE 6.9 mph 6.9 mph 52 % 0.00 in
14:18 61.6 °F 44.3 °F 30.05 in South 3.5 mph 3.5 mph 53 % 0.00 in
14:23 61.4 °F 44.1 °F 30.04 in SSE 4.6 mph 4.6 mph 53 % 0.00 in
14:28 61.2 °F 44.4 °F 30.04 in ESE 4.6 mph 4.6 mph 54 % 0.00 in
14:33 61.1 °F 44.8 °F 30.04 in East 3.5 mph 3.5 mph 55 % 0.00 in
14:38 61.0 °F 44.7 °F 30.04 in ENE 6.0 mph 6.0 mph 55 % 0.00 in
14:43 60.9 °F 44.6 °F 30.04 in SSE 2.3 mph 2.3 mph 55 % 0.00 in
14:48 60.9 °F 44.6 °F 30.03 in ENE 5.8 mph 5.8 mph 55 % 0.00 in
14:53 61.4 °F 45.6 °F 30.03 in SSE 2.0 mph 2.0 mph 56 % 0.00 in
14:58 62.0 °F 45.2 °F 30.03 in SSW 3.5 mph 3.5 mph 54 % 0.00 in
15:03 62.1 °F 45.2 °F 30.03 in SSE 2.3 mph 2.3 mph 54 % 0.00 in
15:08 62.1 °F 44.3 °F 30.02 in WSW 6.9 mph 6.9 mph 52 % 0.00 in
15:13 62.0 °F 44.7 °F 30.02 in ENE 3.5 mph 3.5 mph 53 % 0.00 in
15:18 61.6 °F 44.3 °F 30.02 in SSE 5.8 mph 5.8 mph 53 % 0.00 in
15:23 61.2 °F 44.4 °F 30.02 in SSE 3.5 mph 3.5 mph 54 % 0.00 in
15:28 61.0 °F 44.7 °F 30.02 in SSE 1.2 mph 1.2 mph 55 % 0.00 in
15:33 60.8 °F 45.0 °F 30.02 in SSE 3.5 mph 3.5 mph 56 % 0.00 in
15:38 60.6 °F 45.3 °F 30.02 in SE 3.5 mph 3.5 mph 57 % 0.00 in
15:43 60.4 °F 46.0 °F 30.01 in ESE 1.2 mph 1.2 mph 59 % 0.00 in
15:48 60.2 °F 46.7 °F 30.01 in Calm     61 % 0.00 in
15:53 60.0 °F 47.4 °F 30.01 in Calm     63 % 0.00 in
15:58 59.9 °F 47.7 °F 30.01 in Calm     64 % 0.00 in
16:03 59.7 °F 46.7 °F 30.01 in SSE 2.3 mph 2.3 mph 62 % 0.00 in
16:08 59.7 °F 45.8 °F 30.01 in SSE 2.3 mph 2.3 mph 60 % 0.00 in
16:13 59.7 °F 47.1 °F 30.01 in Calm     63 % 0.00 in
16:18 59.7 °F 47.9 °F 30.01 in Calm     65 % 0.00 in
16:23 59.7 °F 48.7 °F 30.01 in Calm     67 % 0.00 in
16:28 59.4 °F 49.2 °F 30.00 in Calm     69 % 0.01 in
16:33 59.1 °F 50.5 °F 30.00 in Calm     73 % 0.01 in
16:38 58.6 °F 50.3 °F 30.00 in Calm     74 % 0.01 in
16:43 58.3 °F 50.0 °F 30.00 in Calm     74 % 0.01 in
16:48 58.1 °F 49.9 °F 30.00 in Calm     74 % 0.01 in
16:53 57.9 °F 49.7 °F 30.00 in SE 1.2 mph 1.2 mph 74 % 0.01 in
16:58 57.7 °F 49.8 °F 30.00 in Calm     75 % 0.01 in
17:03 57.3 °F 50.1 °F 30.00 in Calm     77 % 0.02 in
17:08 56.9 °F 50.1 °F 30.00 in Calm     78 % 0.02 in
17:13 56.6 °F 50.5 °F 30.00 in Calm     80 % 0.02 in
17:18 56.0 °F 50.6 °F 30.00 in Calm     82 % 0.02 in
17:23 55.6 °F 50.8 °F 29.99 in Calm     84 % 0.02 in
17:28 55.1 °F 50.7 °F 30.00 in Calm     85 % 0.01 in
17:33 54.9 °F 50.5 °F 30.00 in Calm     85 % 0.02 in
17:38 54.7 °F 50.3 °F 30.00 in Calm     85 % 0.02 in
17:43 54.6 °F 50.5 °F 30.00 in Calm     86 % 0.02 in
17:48 54.3 °F 50.5 °F 30.00 in Calm     87 % 0.02 in
17:53 54.1 °F 50.3 °F 30.00 in Calm     87 % 0.02 in
17:58 54.0 °F 50.5 °F 30.00 in Calm     88 % 0.02 in
18:03 54.0 °F 50.5 °F 30.00 in Calm     88 % 0.01 in
18:08 54.0 °F 50.5 °F 30.00 in Calm     88 % 0.01 in
18:13 54.0 °F 50.5 °F 30.00 in Calm     88 % 0.01 in
18:18 54.0 °F 50.5 °F 30.00 in Calm     88 % 0.02 in
18:23 54.1 °F 50.9 °F 30.00 in Calm     89 % 0.02 in
18:28 54.1 °F 50.6 °F 30.00 in Calm     88 % 0.02 in
18:33 54.1 °F 50.9 °F 30.00 in Calm     89 % 0.01 in
18:38 54.0 °F 51.1 °F 30.00 in Calm     90 % 0.01 in
18:43 53.8 °F 50.9 °F 30.00 in Calm     90 % 0.02 in
18:48 53.6 °F 50.7 °F 30.00 in Calm     90 % 0.02 in
18:53 53.4 °F 50.5 °F 29.99 in ESE 1.2 mph 1.2 mph 90 % 0.02 in
18:58 53.4 °F 50.5 °F 29.99 in Calm     90 % 0.02 in
19:03 53.3 °F 50.4 °F 30.00 in Calm     90 % 0.02 in
19:08 53.2 °F 50.3 °F 30.00 in Calm     90 % 0.02 in
19:13 53.0 °F 50.1 °F 30.00 in Calm     90 % 0.02 in
19:18 53.1 °F 50.2 °F 30.00 in Calm     90 % 0.01 in
19:23 53.0 °F 50.4 °F 30.00 in Calm     91 % 0.01 in
19:28 53.0 °F 50.4 °F 30.00 in ESE 1.2 mph   91 % 0.02 in
19:33 52.9 °F 50.3 °F 30.00 in Calm     91 % 0.02 in
19:38 53.0 °F 50.1 °F 29.99 in ESE 1.2 mph   90 % 0.02 in
19:43 53.1 °F 49.9 °F 29.99 in East 1.2 mph   89 % 0.01 in
19:48 53.1 °F 49.9 °F 29.99 in Calm     89 % 0.01 in
19:53 53.0 °F 49.8 °F 29.99 in Calm     89 % 0.01 in
19:58 52.9 °F 50.0 °F 29.99 in Calm     90 % 0.02 in
20:03 52.9 °F 50.0 °F 29.99 in Calm     90 % 0.03 in
20:08 52.8 °F 49.9 °F 29.99 in Calm     90 % 0.03 in
20:13 52.7 °F 49.8 °F 29.99 in Calm     90 % 0.03 in
20:18 52.6 °F 49.8 °F 29.99 in East 1.0 mph   90 % 0.03 in
20:23 52.7 °F 49.8 °F 30.00 in NE 1.2 mph   90 % 0.03 in
20:28 52.8 °F 49.9 °F 30.00 in Calm     90 % 0.03 in
20:33 52.7 °F 49.8 °F 30.00 in Calm     90 % 0.03 in
20:38 52.6 °F 49.8 °F 29.99 in Calm     90 % 0.04 in
20:43 52.5 °F 49.7 °F 29.98 in Calm     90 % 0.04 in
20:48 52.5 °F 49.7 °F 29.98 in SE 1.2 mph   90 % 0.04 in
20:53 52.5 °F 49.7 °F 29.99 in Calm     90 % 0.04 in
20:58 52.4 °F 49.6 °F 29.99 in Calm     90 % 0.03 in
21:03 52.4 °F 49.6 °F 29.98 in Calm     90 % 0.02 in
21:08 52.4 °F 49.6 °F 29.98 in Calm     90 % 0.02 in
21:13 52.4 °F 49.6 °F 29.97 in Calm     90 % 0.02 in
21:18 52.4 °F 49.6 °F 29.97 in East 2.3 mph 2.3 mph 90 % 0.02 in
21:24 52.4 °F 49.6 °F 29.97 in Calm     90 % 0.02 in
21:29 52.3 °F 49.5 °F 29.97 in Calm     90 % 0.01 in
21:34 52.3 °F 49.5 °F 29.97 in Calm     90 % 0.01 in
21:39 52.3 °F 49.5 °F 29.97 in Calm     90 % 0.00 in
21:44 52.3 °F 49.5 °F 29.97 in Calm     90 % 0.00 in
21:49 52.3 °F 49.5 °F 29.97 in Calm     90 % 0.00 in
21:54 52.2 °F 49.7 °F 29.97 in Calm     91 % 0.00 in
21:59 52.1 °F 49.6 °F 29.97 in Calm     91 % 0.00 in
22:13 52.1 °F 49.6 °F 29.97 in NW 1.2 mph 1.2 mph 91 % 0.01 in
22:18 51.9 °F 49.4 °F 29.97 in West 1.2 mph   91 % 0.01 in
22:23 51.9 °F 49.4 °F 29.97 in Calm     91 % 0.01 in
22:28 51.8 °F 49.3 °F 29.97 in Calm     91 % 0.01 in
22:33 51.7 °F 49.5 °F 29.97 in Calm     92 % 0.03 in
22:38 51.7 °F 49.5 °F 29.96 in East 1.2 mph   92 % 0.04 in
22:43 51.8 °F 49.3 °F 29.97 in Calm     91 % 0.05 in
22:48 51.8 °F 49.3 °F 29.97 in Calm     91 % 0.05 in
22:53 51.7 °F 49.2 °F 29.97 in Calm     91 % 0.05 in
22:58 51.8 °F 49.3 °F 29.97 in Calm     91 % 0.06 in
23:03 51.8 °F 49.3 °F 29.96 in Calm     91 % 0.06 in
23:08 51.7 °F 49.2 °F 29.96 in Calm     91 % 0.07 in
23:13 51.8 °F 49.0 °F 29.97 in East 1.2 mph   90 % 0.06 in
23:18 51.8 °F 49.0 °F 29.97 in East 1.2 mph 1.2 mph 90 % 0.06 in
23:23 51.7 °F 48.9 °F 29.97 in East 1.2 mph   90 % 0.06 in
23:28 51.6 °F 48.8 °F 29.97 in Calm   0.3 mph 90 % 0.07 in
23:33 51.4 °F 48.9 °F 29.96 in East 2.0 mph 2.0 mph 91 % 0.05 in
23:38 51.3 °F 48.8 °F 29.96 in East 2.3 mph   91 % 0.04 in
23:43 51.3 °F 48.8 °F 29.96 in East 1.2 mph 1.2 mph 91 % 0.04 in
23:49 51.3 °F 48.8 °F 29.96 in East 3.0 mph 3.0 mph 91 % 0.04 in
23:54 51.4 °F 48.6 °F 29.95 in SSW 3.5 mph 3.5 mph 90 % 0.04 in
23:59 51.4 °F 48.6 °F 29.96 in ESE 3.5 mph 3.5 mph 90 % 0.03 in
Park Place, Exeter, Tulare County, California, USA
Compliments of Weather Underground - 2.75 mb